Aérodrome :
LOGIN :

S'inscrire | Disclaimer

   EN    FR    IT 

 










Légende :    VFR   VFR Marginal   IFR   IFR Intensif   IFR Très Intensif
Visi : 
Plafond : 
>= 8 km
>= 3000ft
5 à 8 km
1000 à 3000 ft
1500m à 5 km
500 à 1000 ft
800 à 1500m
200 à 500 ft
< 800m
< 200 ft
Symboles :   Orages  Brouillard  Fortes neiges  Fortes précipitations  Vent > 20 kt
SIGMETs :   Divers  Orages  Givrage  Turbulence  Onde Orograph.  Cendres Volcan.







- Altitude de l'aérodrome : 70 ft
- Code IATA : LEI


LEAM - Almeria

DERNIER METAR :
  • 121300Z 20005KT 160V230 CAVOK 17/12 Q1019

METARs EXPIRÉS :
  • 121230Z 19004KT 150V230 CAVOK 17/11 Q1020
  • 121200Z 20004KT 150V240 CAVOK 17/11 Q1020
  • 121130Z 20004KT 150V250 CAVOK 17/11 Q1021
  • 121100Z 22006KT 190V260 CAVOK 17/11 Q1021
  • 121030Z 21007KT 190V250 CAVOK 17/10 Q1021
  • 121000Z 31008KT 280V340 CAVOK 18/06 Q1021

TAF TAF LEAM
Valide du 12 à 09h jusqu'au 13 à 09h UTC


120800Z 1209/1309 21006KT 9999 FEW030 TX18/1214Z TN08/1307Z
Pas de NOTAMs connus pour ce terrain.



MET'MAP, la Météo Aéronautique d'un coup d'oeil ! - Copyright ORBIFLY Décembre 2007 - Disclaimer

ORBIFLY MET'MAP TEAM :

Programmation & Développement : Alexandra Zaïnal
Conception & Développement : Baudouin d'Aumeries
Co-Programmation & Développement : Marc-Olivier Méhu
Soutien technique & logistique : Manuel Goepfert

Contact : metmap@orbifly.com




SOURCES & CREDITS :

   NOAA